sensor_id;sensor_type;location;lat;lon;timestamp;pressure;altitude;pressure_sealevel;temperature;humidity
50310;BME280;36207;51.850;21.698;2024-01-16T00:01:54;97768.91;;;-2.03;71.47
50310;BME280;36207;51.850;21.698;2024-01-16T00:04:20;97770.19;;;-2.02;71.30
50310;BME280;36207;51.850;21.698;2024-01-16T00:06:46;97775.95;;;-2.02;71.03
50310;BME280;36207;51.850;21.698;2024-01-16T00:09:12;97784.02;;;-2.03;70.89
50310;BME280;36207;51.850;21.698;2024-01-16T00:11:44;97785.91;;;-2.04;70.16
50310;BME280;36207;51.850;21.698;2024-01-16T00:14:10;97789.98;;;-2.06;70.25
50310;BME280;36207;51.850;21.698;2024-01-16T00:16:46;97790.65;;;-2.06;71.05
50310;BME280;36207;51.850;21.698;2024-01-16T00:19:13;97792.95;;;-2.08;69.66
50310;BME280;36207;51.850;21.698;2024-01-16T00:21:44;97794.44;;;-2.09;69.83
50310;BME280;36207;51.850;21.698;2024-01-16T00:24:13;97799.87;;;-2.13;68.90
50310;BME280;36207;51.850;21.698;2024-01-16T00:26:39;97801.95;;;-2.18;68.47
50310;BME280;36207;51.850;21.698;2024-01-16T00:29:05;97804.27;;;-2.22;68.01
50310;BME280;36207;51.850;21.698;2024-01-16T00:31:31;97803.52;;;-2.25;68.04
50310;BME280;36207;51.850;21.698;2024-01-16T00:33:57;97806.08;;;-2.28;67.76
50310;BME280;36207;51.850;21.698;2024-01-16T00:36:23;97811.78;;;-2.33;68.33
50310;BME280;36207;51.850;21.698;2024-01-16T00:38:49;97817.49;;;-2.34;68.95
50310;BME280;36207;51.850;21.698;2024-01-16T00:41:15;97824.81;;;-2.38;68.65
50310;BME280;36207;51.850;21.698;2024-01-16T00:43:43;97827.46;;;-2.41;69.01
50310;BME280;36207;51.850;21.698;2024-01-16T00:46:09;97830.62;;;-2.43;69.11
50310;BME280;36207;51.850;21.698;2024-01-16T00:48:35;97840.62;;;-2.46;67.89
50310;BME280;36207;51.850;21.698;2024-01-16T00:51:02;97840.56;;;-2.45;68.37
50310;BME280;36207;51.850;21.698;2024-01-16T00:53:28;97840.43;;;-2.46;67.82
50310;BME280;36207;51.850;21.698;2024-01-16T00:55:54;97847.22;;;-2.46;67.91
50310;BME280;36207;51.850;21.698;2024-01-16T00:58:22;97852.45;;;-2.46;67.66
50310;BME280;36207;51.850;21.698;2024-01-16T01:00:48;97860.98;;;-2.45;68.41
50310;BME280;36207;51.850;21.698;2024-01-16T01:03:14;97859.99;;;-2.46;67.97
50310;BME280;36207;51.850;21.698;2024-01-16T01:05:40;97861.20;;;-2.46;68.27
50310;BME280;36207;51.850;21.698;2024-01-16T01:08:07;97865.29;;;-2.47;67.32
50310;BME280;36207;51.850;21.698;2024-01-16T01:10:33;97865.92;;;-2.48;67.17
50310;BME280;36207;51.850;21.698;2024-01-16T01:12:59;97872.23;;;-2.45;68.03
50310;BME280;36207;51.850;21.698;2024-01-16T01:15:25;97877.33;;;-2.45;68.13
50310;BME280;36207;51.850;21.698;2024-01-16T01:17:51;97877.58;;;-2.46;67.38
50310;BME280;36207;51.850;21.698;2024-01-16T01:20:18;97875.95;;;-2.45;67.74
50310;BME280;36207;51.850;21.698;2024-01-16T01:22:45;97878.64;;;-2.44;67.95
50310;BME280;36207;51.850;21.698;2024-01-16T01:25:12;97882.34;;;-2.47;67.97
50310;BME280;36207;51.850;21.698;2024-01-16T01:27:39;97886.52;;;-2.47;68.14
50310;BME280;36207;51.850;21.698;2024-01-16T01:30:09;97895.15;;;-2.46;67.83
50310;BME280;36207;51.850;21.698;2024-01-16T01:32:38;97893.29;;;-2.47;67.70
50310;BME280;36207;51.850;21.698;2024-01-16T01:35:05;97895.35;;;-2.46;68.20
50310;BME280;36207;51.850;21.698;2024-01-16T01:37:31;97896.45;;;-2.47;67.67
50310;BME280;36207;51.850;21.698;2024-01-16T01:39:57;97904.08;;;-2.46;67.79
50310;BME280;36207;51.850;21.698;2024-01-16T01:42:23;97912.40;;;-2.46;68.15
50310;BME280;36207;51.850;21.698;2024-01-16T01:44:49;97914.69;;;-2.46;67.74
50310;BME280;36207;51.850;21.698;2024-01-16T01:47:15;97925.58;;;-2.45;68.11
50310;BME280;36207;51.850;21.698;2024-01-16T01:49:41;97930.96;;;-2.45;68.25
50310;BME280;36207;51.850;21.698;2024-01-16T01:52:07;97934.41;;;-2.47;67.43
50310;BME280;36207;51.850;21.698;2024-01-16T01:54:36;97943.17;;;-2.47;67.10
50310;BME280;36207;51.850;21.698;2024-01-16T01:57:03;97953.95;;;-2.47;67.25
50310;BME280;36207;51.850;21.698;2024-01-16T01:59:30;97968.74;;;-2.44;67.69
50310;BME280;36207;51.850;21.698;2024-01-16T02:01:57;97971.27;;;-2.46;66.90
50310;BME280;36207;51.850;21.698;2024-01-16T02:04:24;97974.34;;;-2.43;68.16
50310;BME280;36207;51.850;21.698;2024-01-16T02:06:51;97976.52;;;-2.42;68.02
50310;BME280;36207;51.850;21.698;2024-01-16T02:09:18;97978.64;;;-2.44;67.01
50310;BME280;36207;51.850;21.698;2024-01-16T02:11:44;97980.68;;;-2.44;67.23
50310;BME280;36207;51.850;21.698;2024-01-16T02:14:10;97987.52;;;-2.46;66.51
50310;BME280;36207;51.850;21.698;2024-01-16T02:16:40;97988.27;;;-2.49;66.18
50310;BME280;36207;51.850;21.698;2024-01-16T02:19:07;97992.63;;;-2.52;65.31
50310;BME280;36207;51.850;21.698;2024-01-16T02:21:46;98003.10;;;-2.54;65.66
50310;BME280;36207;51.850;21.698;2024-01-16T02:24:18;98008.08;;;-2.57;65.86
50310;BME280;36207;51.850;21.698;2024-01-16T02:26:44;98010.75;;;-2.59;65.48
50310;BME280;36207;51.850;21.698;2024-01-16T02:29:11;98015.68;;;-2.60;66.04
50310;BME280;36207;51.850;21.698;2024-01-16T02:31:37;98018.05;;;-2.61;66.29
50310;BME280;36207;51.850;21.698;2024-01-16T02:34:03;98026.45;;;-2.63;65.65
50310;BME280;36207;51.850;21.698;2024-01-16T02:36:30;98030.36;;;-2.64;65.47
50310;BME280;36207;51.850;21.698;2024-01-16T02:38:56;98040.22;;;-2.65;65.90
50310;BME280;36207;51.850;21.698;2024-01-16T02:41:22;98040.06;;;-2.65;65.72
50310;BME280;36207;51.850;21.698;2024-01-16T02:43:48;98048.42;;;-2.63;66.73
50310;BME280;36207;51.850;21.698;2024-01-16T02:46:14;98051.99;;;-2.64;66.09
50310;BME280;36207;51.850;21.698;2024-01-16T02:48:41;98053.84;;;-2.64;66.55
50310;BME280;36207;51.850;21.698;2024-01-16T02:51:08;98055.67;;;-2.63;66.82
50310;BME280;36207;51.850;21.698;2024-01-16T02:53:35;98066.30;;;-2.63;66.64
50310;BME280;36207;51.850;21.698;2024-01-16T02:56:01;98073.64;;;-2.63;66.59
50310;BME280;36207;51.850;21.698;2024-01-16T02:58:28;98077.26;;;-2.64;65.99
50310;BME280;36207;51.850;21.698;2024-01-16T03:00:55;98079.06;;;-2.65;66.11
50310;BME280;36207;51.850;21.698;2024-01-16T03:03:21;98080.96;;;-2.65;65.74
50310;BME280;36207;51.850;21.698;2024-01-16T03:05:47;98083.47;;;-2.66;65.18
50310;BME280;36207;51.850;21.698;2024-01-16T03:08:13;98092.77;;;-2.64;66.07
50310;BME280;36207;51.850;21.698;2024-01-16T03:10:39;98091.09;;;-2.65;65.70
50310;BME280;36207;51.850;21.698;2024-01-16T03:13:05;98092.88;;;-2.68;65.60
50310;BME280;36207;51.850;21.698;2024-01-16T03:15:31;98094.67;;;-2.68;65.21
50310;BME280;36207;51.850;21.698;2024-01-16T03:17:58;98094.52;;;-2.71;65.70
50310;BME280;36207;51.850;21.698;2024-01-16T03:20:24;98099.00;;;-2.72;65.67
50310;BME280;36207;51.850;21.698;2024-01-16T03:22:50;98099.71;;;-2.76;64.44
50310;BME280;36207;51.850;21.698;2024-01-16T03:25:16;98103.45;;;-2.77;65.49
50310;BME280;36207;51.850;21.698;2024-01-16T03:27:43;98111.34;;;-2.77;65.19
50310;BME280;36207;51.850;21.698;2024-01-16T03:30:10;98122.39;;;-2.78;65.63
50310;BME280;36207;51.850;21.698;2024-01-16T03:32:37;98128.58;;;-2.79;65.67
50310;BME280;36207;51.850;21.698;2024-01-16T03:35:04;98125.13;;;-2.79;66.39
50310;BME280;36207;51.850;21.698;2024-01-16T03:37:30;98130.08;;;-2.80;66.58
50310;BME280;36207;51.850;21.698;2024-01-16T03:39:56;98133.27;;;-2.81;66.68
50310;BME280;36207;51.850;21.698;2024-01-16T03:42:23;98135.90;;;-2.83;66.54
50310;BME280;36207;51.850;21.698;2024-01-16T03:44:49;98141.33;;;-2.85;66.52
50310;BME280;36207;51.850;21.698;2024-01-16T03:47:15;98147.16;;;-2.86;66.51
50310;BME280;36207;51.850;21.698;2024-01-16T03:49:41;98146.80;;;-2.86;66.25
50310;BME280;36207;51.850;21.698;2024-01-16T03:52:08;98154.83;;;-2.86;66.86
50310;BME280;36207;51.850;21.698;2024-01-16T03:54:34;98155.37;;;-2.84;66.90
50310;BME280;36207;51.850;21.698;2024-01-16T03:57:00;98157.52;;;-2.87;66.79
50310;BME280;36207;51.850;21.698;2024-01-16T03:59:26;98164.27;;;-2.86;66.86
50310;BME280;36207;51.850;21.698;2024-01-16T04:01:52;98164.99;;;-2.85;66.74
50310;BME280;36207;51.850;21.698;2024-01-16T04:04:18;98170.61;;;-2.83;67.02
50310;BME280;36207;51.850;21.698;2024-01-16T04:06:46;98167.33;;;-2.82;67.25
50310;BME280;36207;51.850;21.698;2024-01-16T04:09:12;98171.34;;;-2.82;67.48
50310;BME280;36207;51.850;21.698;2024-01-16T04:11:40;98177.73;;;-2.83;66.86
50310;BME280;36207;51.850;21.698;2024-01-16T04:14:06;98178.20;;;-2.85;66.43
50310;BME280;36207;51.850;21.698;2024-01-16T04:16:32;98188.27;;;-2.86;66.84
50310;BME280;36207;51.850;21.698;2024-01-16T04:18:58;98193.10;;;-2.88;66.96
50310;BME280;36207;51.850;21.698;2024-01-16T04:21:25;98200.42;;;-2.90;66.87
50310;BME280;36207;51.850;21.698;2024-01-16T04:23:50;98202.40;;;-2.92;66.95
50310;BME280;36207;51.850;21.698;2024-01-16T04:26:16;98199.73;;;-2.98;66.19
50310;BME280;36207;51.850;21.698;2024-01-16T04:28:42;98204.46;;;-3.02;66.56
50310;BME280;36207;51.850;21.698;2024-01-16T04:31:08;98209.98;;;-3.07;65.98
50310;BME280;36207;51.850;21.698;2024-01-16T04:33:35;98215.18;;;-3.13;66.06
50310;BME280;36207;51.850;21.698;2024-01-16T04:36:01;98221.02;;;-3.16;66.26
50310;BME280;36207;51.850;21.698;2024-01-16T04:38:26;98225.77;;;-3.22;66.08
50310;BME280;36207;51.850;21.698;2024-01-16T04:40:52;98232.84;;;-3.23;66.67
50310;BME280;36207;51.850;21.698;2024-01-16T04:43:18;98234.27;;;-3.27;66.63
50310;BME280;36207;51.850;21.698;2024-01-16T04:45:45;98233.44;;;-3.30;66.33
50310;BME280;36207;51.850;21.698;2024-01-16T04:48:11;98238.92;;;-3.31;66.70
50310;BME280;36207;51.850;21.698;2024-01-16T04:50:37;98241.16;;;-3.31;67.06
50310;BME280;36207;51.850;21.698;2024-01-16T04:53:03;98236.42;;;-3.34;66.42
50310;BME280;36207;51.850;21.698;2024-01-16T04:55:29;98240.38;;;-3.38;66.57
50310;BME280;36207;51.850;21.698;2024-01-16T04:57:56;98243.23;;;-3.39;67.03
50310;BME280;36207;51.850;21.698;2024-01-16T05:00:23;98246.27;;;-3.40;67.00
50310;BME280;36207;51.850;21.698;2024-01-16T05:02:49;98245.39;;;-3.41;67.10
50310;BME280;36207;51.850;21.698;2024-01-16T05:05:17;98247.42;;;-3.43;67.06
50310;BME280;36207;51.850;21.698;2024-01-16T05:07:43;98250.90;;;-3.47;66.89
50310;BME280;36207;51.850;21.698;2024-01-16T05:10:10;98254.27;;;-3.49;67.04
50310;BME280;36207;51.850;21.698;2024-01-16T05:12:39;98254.61;;;-3.53;66.94
50310;BME280;36207;51.850;21.698;2024-01-16T05:15:08;98256.17;;;-3.55;67.06
50310;BME280;36207;51.850;21.698;2024-01-16T05:17:34;98256.94;;;-3.58;66.94
50310;BME280;36207;51.850;21.698;2024-01-16T05:20:01;98258.14;;;-3.62;66.99
50310;BME280;36207;51.850;21.698;2024-01-16T05:22:29;98261.50;;;-3.67;67.11
50310;BME280;36207;51.850;21.698;2024-01-16T05:24:55;98265.11;;;-3.70;67.23
50310;BME280;36207;51.850;21.698;2024-01-16T05:27:21;98265.70;;;-3.73;67.20
50310;BME280;36207;51.850;21.698;2024-01-16T05:29:47;98270.77;;;-3.76;67.45
50310;BME280;36207;51.850;21.698;2024-01-16T05:32:13;98271.01;;;-3.80;67.37
50310;BME280;36207;51.850;21.698;2024-01-16T05:34:39;98271.06;;;-3.85;67.27
50310;BME280;36207;51.850;21.698;2024-01-16T05:37:05;98280.13;;;-3.87;67.31
50310;BME280;36207;51.850;21.698;2024-01-16T05:39:31;98284.73;;;-3.90;67.35
50310;BME280;36207;51.850;21.698;2024-01-16T05:41:57;98288.78;;;-3.93;67.46
50310;BME280;36207;51.850;21.698;2024-01-16T05:44:23;98287.21;;;-3.97;67.44
50310;BME280;36207;51.850;21.698;2024-01-16T05:46:49;98293.44;;;-4.01;67.50
50310;BME280;36207;51.850;21.698;2024-01-16T05:49:15;98294.83;;;-4.05;67.47
50310;BME280;36207;51.850;21.698;2024-01-16T05:51:41;98304.30;;;-4.08;67.62
50310;BME280;36207;51.850;21.698;2024-01-16T05:54:07;98304.45;;;-4.10;67.69
50310;BME280;36207;51.850;21.698;2024-01-16T05:56:33;98310.20;;;-4.12;67.79
50310;BME280;36207;51.850;21.698;2024-01-16T05:58:59;98310.56;;;-4.12;67.77
50310;BME280;36207;51.850;21.698;2024-01-16T06:01:25;98315.38;;;-4.14;67.98
50310;BME280;36207;51.850;21.698;2024-01-16T06:03:53;98326.52;;;-4.12;68.00
50310;BME280;36207;51.850;21.698;2024-01-16T06:06:19;98332.16;;;-4.11;68.04
50310;BME280;36207;51.850;21.698;2024-01-16T06:08:45;98340.15;;;-4.11;68.06
50310;BME280;36207;51.850;21.698;2024-01-16T06:11:11;98348.30;;;-4.11;68.07
50310;BME280;36207;51.850;21.698;2024-01-16T06:13:39;98351.94;;;-4.12;68.20
50310;BME280;36207;51.850;21.698;2024-01-16T06:16:08;98359.44;;;-4.15;68.17
50310;BME280;36207;51.850;21.698;2024-01-16T06:18:34;98375.29;;;-4.17;68.29
50310;BME280;36207;51.850;21.698;2024-01-16T06:21:02;98371.95;;;-4.19;68.26
50310;BME280;36207;51.850;21.698;2024-01-16T06:23:28;98379.00;;;-4.20;68.25
50310;BME280;36207;51.850;21.698;2024-01-16T06:25:54;98390.73;;;-4.23;68.32
50310;BME280;36207;51.850;21.698;2024-01-16T06:28:20;98393.28;;;-4.25;68.40
50310;BME280;36207;51.850;21.698;2024-01-16T06:30:46;98385.48;;;-4.25;68.28
50310;BME280;36207;51.850;21.698;2024-01-16T06:33:12;98387.41;;;-4.23;68.23
50310;BME280;36207;51.850;21.698;2024-01-16T06:35:38;98393.53;;;-4.26;68.33
50310;BME280;36207;51.850;21.698;2024-01-16T06:38:04;98402.15;;;-4.27;68.37
50310;BME280;36207;51.850;21.698;2024-01-16T06:40:30;98408.27;;;-4.30;68.33
50310;BME280;36207;51.850;21.698;2024-01-16T06:42:56;98413.52;;;-4.32;68.22
50310;BME280;36207;51.850;21.698;2024-01-16T06:45:22;98409.75;;;-4.35;68.29
50310;BME280;36207;51.850;21.698;2024-01-16T06:47:48;98412.59;;;-4.38;68.32
50310;BME280;36207;51.850;21.698;2024-01-16T06:50:14;98416.60;;;-4.42;68.32
50310;BME280;36207;51.850;21.698;2024-01-16T06:52:40;98418.29;;;-4.46;68.45
50310;BME280;36207;51.850;21.698;2024-01-16T06:55:06;98419.97;;;-4.48;68.35
50310;BME280;36207;51.850;21.698;2024-01-16T06:57:32;98426.65;;;-4.49;68.35
50310;BME280;36207;51.850;21.698;2024-01-16T06:59:58;98434.27;;;-4.49;68.38
50310;BME280;36207;51.850;21.698;2024-01-16T07:02:24;98438.45;;;-4.49;68.37
50310;BME280;36207;51.850;21.698;2024-01-16T07:04:49;98446.02;;;-4.47;68.38
50310;BME280;36207;51.850;21.698;2024-01-16T07:07:15;98454.43;;;-4.46;68.35
50310;BME280;36207;51.850;21.698;2024-01-16T07:09:41;98453.82;;;-4.45;68.24
50310;BME280;36207;51.850;21.698;2024-01-16T07:12:07;98458.03;;;-4.43;68.36
50310;BME280;36207;51.850;21.698;2024-01-16T07:14:33;98462.38;;;-4.41;68.31
50310;BME280;36207;51.850;21.698;2024-01-16T07:16:59;98465.70;;;-4.42;68.06
50310;BME280;36207;51.850;21.698;2024-01-16T07:19:25;98464.05;;;-4.38;68.36
50310;BME280;36207;51.850;21.698;2024-01-16T07:21:51;98469.64;;;-4.37;68.29
50310;BME280;36207;51.850;21.698;2024-01-16T07:24:17;98475.45;;;-4.31;68.37
50310;BME280;36207;51.850;21.698;2024-01-16T07:26:43;98480.00;;;-4.23;68.63
50310;BME280;36207;51.850;21.698;2024-01-16T07:29:09;98478.49;;;-4.06;68.79
50310;BME280;36207;51.850;21.698;2024-01-16T07:31:35;98482.48;;;-3.81;68.15
50310;BME280;36207;51.850;21.698;2024-01-16T07:34:01;98489.41;;;-3.66;68.05
50310;BME280;36207;51.850;21.698;2024-01-16T07:36:27;98493.36;;;-3.65;68.00
50310;BME280;36207;51.850;21.698;2024-01-16T07:38:53;98501.79;;;-3.66;67.70
50310;BME280;36207;51.850;21.698;2024-01-16T07:41:19;98505.88;;;-3.71;67.50
50310;BME280;36207;51.850;21.698;2024-01-16T07:43:45;98514.36;;;-3.77;67.57
50310;BME280;36207;51.850;21.698;2024-01-16T07:46:10;98520.57;;;-3.83;67.70
50310;BME280;36207;51.850;21.698;2024-01-16T07:48:36;98522.95;;;-3.86;67.77
50310;BME280;36207;51.850;21.698;2024-01-16T07:51:03;98525.52;;;-3.93;67.25
50310;BME280;36207;51.850;21.698;2024-01-16T07:53:29;98532.94;;;-3.96;67.64
50310;BME280;36207;51.850;21.698;2024-01-16T07:55:55;98538.60;;;-4.01;67.35
50310;BME280;36207;51.850;21.698;2024-01-16T07:58:22;98536.24;;;-4.07;67.55
50310;BME280;36207;51.850;21.698;2024-01-16T08:00:48;98540.83;;;-4.12;67.56
50310;BME280;36207;51.850;21.698;2024-01-16T08:03:14;98541.92;;;-4.17;67.46
50310;BME280;36207;51.850;21.698;2024-01-16T08:05:40;98538.95;;;-4.23;67.40
50310;BME280;36207;51.850;21.698;2024-01-16T08:08:09;98544.18;;;-4.25;67.88
50310;BME280;36207;51.850;21.698;2024-01-16T08:10:35;98545.16;;;-4.29;67.67
50310;BME280;36207;51.850;21.698;2024-01-16T08:13:01;98551.14;;;-4.28;68.05
50310;BME280;36207;51.850;21.698;2024-01-16T08:15:27;98558.42;;;-4.28;67.92
50310;BME280;36207;51.850;21.698;2024-01-16T08:17:53;98564.05;;;-4.29;67.79
50310;BME280;36207;51.850;21.698;2024-01-16T08:20:19;98565.63;;;-4.29;67.81
50310;BME280;36207;51.850;21.698;2024-01-16T08:22:45;98566.15;;;-4.31;67.69
50310;BME280;36207;51.850;21.698;2024-01-16T08:25:11;98572.23;;;-4.27;67.97
50310;BME280;36207;51.850;21.698;2024-01-16T08:27:37;98577.27;;;-4.09;68.23
50310;BME280;36207;51.850;21.698;2024-01-16T08:30:05;98581.94;;;-3.68;68.44
50310;BME280;36207;51.850;21.698;2024-01-16T08:32:31;98578.42;;;-3.22;68.28
50310;BME280;36207;51.850;21.698;2024-01-16T08:34:57;98578.89;;;-2.90;66.17
50310;BME280;36207;51.850;21.698;2024-01-16T08:37:23;98587.14;;;-2.62;65.95
50310;BME280;36207;51.850;21.698;2024-01-16T08:39:51;98587.61;;;-2.15;66.62
50310;BME280;36207;51.850;21.698;2024-01-16T08:42:17;98592.73;;;-1.64;65.81
50310;BME280;36207;51.850;21.698;2024-01-16T08:44:44;98593.59;;;-1.15;65.00
50310;BME280;36207;51.850;21.698;2024-01-16T08:47:09;98600.18;;;-0.67;66.28
50310;BME280;36207;51.850;21.698;2024-01-16T08:49:35;98599.42;;;-0.18;65.77
50310;BME280;36207;51.850;21.698;2024-01-16T08:52:04;98603.89;;;0.32;63.94
50310;BME280;36207;51.850;21.698;2024-01-16T08:54:31;98608.20;;;0.74;62.71
50310;BME280;36207;51.850;21.698;2024-01-16T08:56:57;98610.13;;;1.02;62.12
50310;BME280;36207;51.850;21.698;2024-01-16T08:59:24;98615.63;;;1.26;62.00
50310;BME280;36207;51.850;21.698;2024-01-16T09:01:50;98621.52;;;1.38;61.42
50310;BME280;36207;51.850;21.698;2024-01-16T09:04:17;98621.44;;;1.52;59.51
50310;BME280;36207;51.850;21.698;2024-01-16T09:06:43;98625.88;;;1.69;57.49
50310;BME280;36207;51.850;21.698;2024-01-16T09:09:08;98622.48;;;1.82;59.86
50310;BME280;36207;51.850;21.698;2024-01-16T09:11:34;98628.54;;;1.93;59.49
50310;BME280;36207;51.850;21.698;2024-01-16T09:14:00;98634.48;;;2.05;58.90
50310;BME280;36207;51.850;21.698;2024-01-16T09:16:26;98633.04;;;2.14;57.88
50310;BME280;36207;51.850;21.698;2024-01-16T09:18:52;98637.05;;;2.04;58.13
50310;BME280;36207;51.850;21.698;2024-01-16T09:21:18;98639.10;;;1.79;57.51
50310;BME280;36207;51.850;21.698;2024-01-16T09:23:44;98645.84;;;1.61;57.35
50310;BME280;36207;51.850;21.698;2024-01-16T09:26:11;98643.75;;;1.52;57.84
50310;BME280;36207;51.850;21.698;2024-01-16T09:28:37;98648.07;;;1.58;57.38
50310;BME280;36207;51.850;21.698;2024-01-16T09:31:03;98649.30;;;1.51;56.80
50310;BME280;36207;51.850;21.698;2024-01-16T09:33:29;98653.86;;;1.44;55.51
50310;BME280;36207;51.850;21.698;2024-01-16T09:35:55;98656.32;;;1.42;57.57
50310;BME280;36207;51.850;21.698;2024-01-16T09:38:21;98664.14;;;1.57;56.98
50310;BME280;36207;51.850;21.698;2024-01-16T09:40:47;98668.88;;;1.62;56.46
50310;BME280;36207;51.850;21.698;2024-01-16T09:43:13;98665.23;;;1.68;56.05
50310;BME280;36207;51.850;21.698;2024-01-16T09:45:40;98668.81;;;1.71;54.69
50310;BME280;36207;51.850;21.698;2024-01-16T09:48:07;98671.31;;;1.69;53.52
50310;BME280;36207;51.850;21.698;2024-01-16T09:50:34;98670.14;;;1.60;54.04
50310;BME280;36207;51.850;21.698;2024-01-16T09:53:00;98672.89;;;1.41;54.11
50310;BME280;36207;51.850;21.698;2024-01-16T09:55:27;98674.17;;;1.33;54.21
50310;BME280;36207;51.850;21.698;2024-01-16T09:57:53;98678.47;;;1.31;55.74
50310;BME280;36207;51.850;21.698;2024-01-16T10:00:20;98682.63;;;1.37;56.34
50310;BME280;36207;51.850;21.698;2024-01-16T10:02:46;98681.67;;;1.41;53.93
50310;BME280;36207;51.850;21.698;2024-01-16T10:05:13;98678.15;;;1.34;54.32
50310;BME280;36207;51.850;21.698;2024-01-16T10:07:41;98684.45;;;1.27;53.94
50310;BME280;36207;51.850;21.698;2024-01-16T10:10:10;98689.15;;;1.27;55.27
50310;BME280;36207;51.850;21.698;2024-01-16T10:12:40;98690.81;;;1.28;54.96
50310;BME280;36207;51.850;21.698;2024-01-16T10:15:07;98691.64;;;1.30;53.46
50310;BME280;36207;51.850;21.698;2024-01-16T10:17:38;98694.48;;;1.36;55.50
50310;BME280;36207;51.850;21.698;2024-01-16T10:20:07;98698.83;;;1.47;55.40
50310;BME280;36207;51.850;21.698;2024-01-16T10:22:33;98699.14;;;1.43;52.71
50310;BME280;36207;51.850;21.698;2024-01-16T10:25:09;98704.15;;;1.19;53.55
50310;BME280;36207;51.850;21.698;2024-01-16T10:27:37;98710.17;;;1.13;54.31
50310;BME280;36207;51.850;21.698;2024-01-16T10:30:04;98716.81;;;1.14;53.47
50310;BME280;36207;51.850;21.698;2024-01-16T10:32:35;98721.04;;;1.16;52.20
50310;BME280;36207;51.850;21.698;2024-01-16T10:35:03;98722.80;;;1.14;52.16
50310;BME280;36207;51.850;21.698;2024-01-16T10:37:55;98724.45;;;1.00;51.12
50310;BME280;36207;51.850;21.698;2024-01-16T10:40:23;98725.09;;;0.96;51.13
50310;BME280;36207;51.850;21.698;2024-01-16T10:43:03;98724.77;;;0.88;51.72
50310;BME280;36207;51.850;21.698;2024-01-16T10:45:30;98734.44;;;0.82;52.08
50310;BME280;36207;51.850;21.698;2024-01-16T10:48:07;98738.05;;;0.74;51.55
50310;BME280;36207;51.850;21.698;2024-01-16T10:50:35;98735.52;;;0.60;50.44
50310;BME280;36207;51.850;21.698;2024-01-16T10:53:08;98748.50;;;0.53;51.77
50310;BME280;36207;51.850;21.698;2024-01-16T10:58:05;98758.95;;;0.45;52.38
50310;BME280;36207;51.850;21.698;2024-01-16T11:00:33;98760.27;;;0.47;52.41
50310;BME280;36207;51.850;21.698;2024-01-16T11:03:10;98763.80;;;0.53;53.31
50310;BME280;36207;51.850;21.698;2024-01-16T11:05:38;98763.79;;;0.52;53.16
50310;BME280;36207;51.850;21.698;2024-01-16T11:08:05;98771.58;;;0.57;52.72
50310;BME280;36207;51.850;21.698;2024-01-16T11:10:32;98773.38;;;0.56;51.66
50310;BME280;36207;51.850;21.698;2024-01-16T11:13:01;98778.30;;;0.46;50.42
50310;BME280;36207;51.850;21.698;2024-01-16T11:15:28;98777.46;;;0.37;50.39
50310;BME280;36207;51.850;21.698;2024-01-16T11:17:59;98776.42;;;0.33;52.35
50310;BME280;36207;51.850;21.698;2024-01-16T11:20:26;98780.37;;;0.34;52.61
50310;BME280;36207;51.850;21.698;2024-01-16T11:22:53;98782.20;;;0.35;53.39
50310;BME280;36207;51.850;21.698;2024-01-16T11:25:32;98786.77;;;0.40;53.86
50310;BME280;36207;51.850;21.698;2024-01-16T11:28:09;98788.83;;;0.37;51.96
50310;BME280;36207;51.850;21.698;2024-01-16T11:30:39;98794.38;;;0.25;52.70
50310;BME280;36207;51.850;21.698;2024-01-16T11:33:07;98794.84;;;0.24;52.78
50310;BME280;36207;51.850;21.698;2024-01-16T11:35:52;98794.02;;;0.15;52.62
50310;BME280;36207;51.850;21.698;2024-01-16T11:38:18;98795.80;;;0.11;52.12
50310;BME280;36207;51.850;21.698;2024-01-16T11:40:47;98793.27;;;0.08;53.33
50310;BME280;36207;51.850;21.698;2024-01-16T11:45:58;98794.98;;;0.12;52.05
50310;BME280;36207;51.850;21.698;2024-01-16T11:48:24;98790.38;;;0.18;52.60
50310;BME280;36207;51.850;21.698;2024-01-16T11:50:52;98796.27;;;0.21;52.68
50310;BME280;36207;51.850;21.698;2024-01-16T11:53:34;98793.66;;;0.19;52.77
50310;BME280;36207;51.850;21.698;2024-01-16T12:01:19;98802.21;;;0.02;52.33
50310;BME280;36207;51.850;21.698;2024-01-16T12:03:46;98803.95;;;-0.20;53.16
50310;BME280;36207;51.850;21.698;2024-01-16T12:06:16;98805.09;;;-0.35;53.45
50310;BME280;36207;51.850;21.698;2024-01-16T12:08:42;98808.46;;;-0.39;54.10
50310;BME280;36207;51.850;21.698;2024-01-16T12:11:08;98810.23;;;-0.42;53.76
50310;BME280;36207;51.850;21.698;2024-01-16T12:13:34;98806.14;;;-0.39;54.49
50310;BME280;36207;51.850;21.698;2024-01-16T12:16:01;98809.95;;;-0.36;52.78
50310;BME280;36207;51.850;21.698;2024-01-16T12:18:27;98807.73;;;-0.52;51.44
50310;BME280;36207;51.850;21.698;2024-01-16T12:20:54;98810.45;;;-0.69;51.62
50310;BME280;36207;51.850;21.698;2024-01-16T12:23:20;98812.90;;;-0.73;52.98
50310;BME280;36207;51.850;21.698;2024-01-16T12:25:52;98818.15;;;-0.81;51.88
50310;BME280;36207;51.850;21.698;2024-01-16T12:28:21;98819.27;;;-0.92;52.23
50310;BME280;36207;51.850;21.698;2024-01-16T12:30:51;98826.11;;;-1.10;51.53
50310;BME280;36207;51.850;21.698;2024-01-16T12:33:21;98825.29;;;-1.19;52.68
50310;BME280;36207;51.850;21.698;2024-01-16T12:35:48;98827.35;;;-1.16;53.16
50310;BME280;36207;51.850;21.698;2024-01-16T12:38:15;98829.45;;;-1.08;54.26
50310;BME280;36207;51.850;21.698;2024-01-16T12:40:46;98832.45;;;-1.07;53.20
50310;BME280;36207;51.850;21.698;2024-01-16T12:43:13;98833.85;;;-1.07;53.28
50310;BME280;36207;51.850;21.698;2024-01-16T12:45:39;98833.02;;;-1.11;52.57
50310;BME280;36207;51.850;21.698;2024-01-16T12:48:05;98839.71;;;-1.14;53.98
50310;BME280;36207;51.850;21.698;2024-01-16T12:50:32;98839.45;;;-1.15;53.27
50310;BME280;36207;51.850;21.698;2024-01-16T12:53:11;98843.44;;;-1.15;53.65
50310;BME280;36207;51.850;21.698;2024-01-16T12:55:39;98843.86;;;-1.13;54.14
50310;BME280;36207;51.850;21.698;2024-01-16T12:58:19;98848.25;;;-1.12;54.73
50310;BME280;36207;51.850;21.698;2024-01-16T13:00:46;98850.44;;;-1.08;54.69
50310;BME280;36207;51.850;21.698;2024-01-16T13:03:21;98849.86;;;-1.04;53.95